This is the latest recevied weather packets stored in our database for station/object KI5NXU. If no packets are shown the sender has not sent any weather packets the latest 10 day(s).
| Time | Temp. | Humidity | Pressure | Rain* | Wind** | Luminosity | Snow |
|---|---|---|---|---|---|---|---|
| 1787927899 | 28.89° C | 67% | 1018.2 hPa | 0 mm | - | 294 W/m² | - |
| 1787927594 | 28.89° C | 66% | 1018.3 hPa | 0 mm | - | 272 W/m² | - |
| 1787927297 | 28.89° C | 65% | 1018.2 hPa | 0 mm | - | 263 W/m² | - |
| 1787926985 | 28.89° C | 66% | 1018.4 hPa | 0 mm | - | 248 W/m² | - |
| 1787926685 | 30.56° C | 61% | 1018.4 hPa | 0 mm | - | 235 W/m² | - |
| 1787926385 | 31.11° C | 54% | 1018.2 hPa | 0 mm | - | 228 W/m² | - |
| 1787926078 | 30.56° C | 55% | 1018.4 hPa | 0 mm | - | 212 W/m² | - |
| 1787925777 | 30° C | 59% | 1018.2 hPa | 0 mm | - | 179 W/m² | - |
| 1787925476 | 29.44° C | 57% | 1018.4 hPa | 0 mm | - | 172 W/m² | - |
| 1787925171 | 28.89° C | 60% | 1018.3 hPa | 0 mm | - | 167 W/m² | - |
| 1787924870 | 27.78° C | 61% | 1018.4 hPa | 0 mm | - | 154 W/m² | - |
| 1787924565 | 27.78° C | 62% | 1018.6 hPa | 0 mm | - | 141 W/m² | - |
| 1787924261 | 27.78° C | 62% | 1018.5 hPa | 0 mm | - | 128 W/m² | - |
| 1787923956 | 27.22° C | 64% | 1018.5 hPa | 0 mm | - | 120 W/m² | - |
| 1787923655 | 26.67° C | 64% | 1018.7 hPa | 0 mm | - | 79 W/m² | - |
| 1787923351 | 26.11° C | 65% | 1018.2 hPa | 0 mm | - | 69 W/m² | - |
| 1787923046 | 25.56° C | 67% | 1018.4 hPa | 0 mm | - | 63 W/m² | - |
| 1787922741 | 25° C | 69% | 1018.5 hPa | 0 mm | - | 55 W/m² | - |
| 1787922440 | 24.44° C | 71% | 1018.4 hPa | 0 mm | - | 42 W/m² | - |
| 1787922138 | 23.89° C | 72% | 1018.1 hPa | 0 mm | - | 37 W/m² | - |
| 1787921836 | 23.89° C | 73% | 1018.3 hPa | 0 mm | - | 35 W/m² | - |
| 1787921527 | 23.89° C | 74% | 1018.1 hPa | 0 mm | - | 31 W/m² | - |
| 1787921226 | 23.89° C | 73% | 1018.1 hPa | 0 mm | - | 28 W/m² | - |
| 1787920921 | 23.33° C | 73% | 1017.9 hPa | 0 mm | - | 25 W/m² | - |
| 1787920616 | 23.33° C | 73% | 1017.9 hPa | 0 mm | - | 21 W/m² | - |
* Rain latest hour (hover to see other rain measurements)
** Current wind speed in m/s (hover to see current wind gust speed)